createdAt,value
2018-09-18T00:01:11.844Z,15.13
2018-09-18T00:03:40.467Z,15.25
2018-09-18T00:06:08.873Z,15.36
2018-09-18T00:08:37.742Z,15.37
2018-09-18T00:11:06.248Z,15.28
2018-09-18T00:13:34.833Z,15.12
2018-09-18T00:16:03.749Z,15.04
2018-09-18T00:18:32.715Z,14.89
2018-09-18T00:21:01.357Z,14.82
2018-09-18T00:23:30.210Z,14.79
2018-09-18T00:25:58.798Z,14.73
2018-09-18T00:28:27.848Z,14.62
2018-09-18T00:30:56.370Z,14.57
2018-09-18T00:33:24.885Z,14.55
2018-09-18T00:35:53.657Z,14.58
2018-09-18T00:38:22.146Z,14.69
2018-09-18T00:40:50.741Z,14.66
2018-09-18T00:43:19.581Z,14.49
2018-09-18T00:45:48.455Z,14.47
2018-09-18T00:48:17.078Z,14.41
2018-09-18T00:50:45.538Z,14.37
2018-09-18T00:53:14.512Z,14.33
2018-09-18T00:55:42.997Z,14.16
2018-09-18T00:58:11.533Z,14.09
2018-09-18T01:00:40.087Z,14.14
2018-09-18T01:03:08.711Z,14.14
2018-09-18T01:05:37.354Z,14.08
2018-09-18T01:08:05.948Z,14.15
2018-09-18T01:10:34.442Z,14.20
2018-09-18T01:13:02.929Z,14.21
2018-09-18T01:15:31.520Z,14.16
2018-09-18T01:18:00.648Z,14.13
2018-09-18T01:20:29.215Z,14.21
2018-09-18T01:22:57.817Z,14.22
2018-09-18T01:25:26.263Z,14.22
2018-09-18T01:27:54.973Z,14.26
2018-09-18T01:30:23.911Z,14.12
2018-09-18T01:32:52.560Z,14.09
2018-09-18T01:35:21.058Z,14.05
2018-09-18T01:37:49.815Z,14.05
2018-09-18T01:40:18.697Z,14.11
2018-09-18T01:42:47.097Z,14.13
2018-09-18T01:45:15.553Z,14.17
2018-09-18T01:47:44.315Z,14.28
2018-09-18T01:50:13.008Z,14.33
2018-09-18T01:52:41.453Z,14.41
2018-09-18T01:55:10.165Z,14.51
2018-09-18T01:57:39.323Z,14.68
2018-09-18T02:00:07.853Z,14.59
2018-09-18T02:02:36.768Z,14.53
2018-09-18T02:05:05.402Z,14.34
2018-09-18T02:07:33.838Z,14.24
2018-09-18T02:10:02.569Z,14.18
2018-09-18T02:12:31.021Z,14.09
2018-09-18T02:14:59.500Z,14.01
2018-09-18T02:17:28.297Z,13.97
2018-09-18T02:19:57.026Z,13.92
2018-09-18T02:22:25.551Z,13.92
2018-09-18T02:24:54.007Z,13.91
2018-09-18T02:27:22.533Z,13.92
2018-09-18T02:29:50.936Z,13.87
2018-09-18T02:32:20.812Z,13.85
2018-09-18T02:34:49.254Z,13.75
2018-09-18T02:37:18.017Z,13.79
2018-09-18T02:39:46.812Z,13.86
2018-09-18T02:42:15.209Z,13.91
2018-09-18T02:44:44.091Z,13.89
2018-09-18T02:47:12.503Z,13.92
2018-09-18T02:49:40.935Z,13.94
2018-09-18T02:52:09.375Z,13.93
2018-09-18T02:54:37.806Z,13.96
2018-09-18T02:57:06.456Z,14.01
2018-09-18T02:59:34.855Z,14.01
2018-09-18T03:02:03.281Z,14.04
2018-09-18T03:04:32.233Z,14.03
2018-09-18T03:07:00.762Z,14.18
2018-09-18T03:09:29.509Z,14.15
2018-09-18T03:11:58.084Z,14.26
2018-09-18T03:14:26.493Z,14.27
2018-09-18T03:16:54.993Z,14.14
2018-09-18T03:19:23.547Z,14.01
2018-09-18T03:21:52.202Z,13.97
2018-09-18T03:24:20.796Z,14.01
2018-09-18T03:26:49.294Z,14.00
2018-09-18T03:29:17.813Z,14.04
2018-09-18T03:31:46.279Z,14.08
2018-09-18T03:34:14.784Z,14.06
2018-09-18T03:36:43.301Z,14.04
2018-09-18T03:39:11.698Z,14.04
2018-09-18T03:41:40.146Z,14.08
2018-09-18T03:44:08.616Z,14.03
2018-09-18T03:46:37.529Z,13.99
2018-09-18T03:49:05.925Z,13.98
2018-09-18T03:51:34.380Z,13.99
2018-09-18T03:54:02.871Z,14.03
2018-09-18T03:56:31.297Z,14.17
2018-09-18T03:58:59.778Z,14.24
2018-09-18T04:01:28.225Z,14.23
2018-09-18T04:03:56.670Z,14.20
2018-09-18T04:06:25.224Z,14.18
2018-09-18T04:08:53.646Z,14.15
2018-09-18T04:11:22.065Z,14.09
2018-09-18T04:13:50.610Z,14.11
2018-09-18T04:16:19.609Z,14.11
2018-09-18T04:18:48.065Z,14.17
2018-09-18T04:21:16.509Z,14.24
2018-09-18T04:23:45.210Z,14.20
2018-09-18T04:26:13.646Z,14.17
2018-09-18T04:28:42.054Z,14.24
2018-09-18T04:31:10.816Z,14.33
2018-09-18T04:33:39.259Z,14.42
2018-09-18T04:36:07.895Z,14.58
2018-09-18T04:38:36.446Z,14.57
2018-09-18T04:41:04.849Z,14.55
2018-09-18T04:43:33.289Z,14.61
2018-09-18T04:46:01.747Z,14.71
2018-09-18T04:48:30.118Z,14.74
2018-09-18T04:50:58.871Z,14.75
2018-09-18T04:53:27.685Z,14.67
2018-09-18T04:55:56.214Z,14.65
2018-09-18T04:58:24.809Z,14.87
2018-09-18T05:00:53.605Z,15.04
2018-09-18T05:03:22.049Z,14.96
2018-09-18T05:05:50.462Z,14.73
2018-09-18T05:08:18.903Z,14.63
2018-09-18T05:10:47.325Z,14.57
2018-09-18T05:13:16.103Z,14.51
2018-09-18T05:15:44.709Z,14.41
2018-09-18T05:18:13.153Z,14.39
2018-09-18T05:20:41.588Z,14.29
2018-09-18T05:23:10.217Z,14.32
2018-09-18T05:25:38.860Z,14.19
2018-09-18T05:28:07.268Z,14.12
2018-09-18T05:30:36.179Z,14.14
2018-09-18T05:33:04.657Z,14.17
2018-09-18T05:35:33.162Z,14.20
2018-09-18T05:38:01.826Z,14.25
2018-09-18T05:40:30.329Z,14.30
2018-09-18T05:42:58.863Z,14.41
2018-09-18T05:45:27.281Z,14.55
2018-09-18T05:47:55.697Z,14.60
2018-09-18T05:50:24.104Z,14.65
2018-09-18T05:52:52.966Z,14.73
2018-09-18T05:55:21.474Z,14.82
2018-09-18T05:57:50.118Z,14.88
2018-09-18T06:00:18.573Z,14.99
2018-09-18T06:02:47.057Z,15.12
2018-09-18T06:05:16.295Z,15.32
2018-09-18T06:07:44.933Z,15.48
2018-09-18T06:10:13.533Z,15.66
2018-09-18T06:12:42.006Z,15.85
2018-09-18T06:15:10.442Z,16.04
2018-09-18T06:17:38.891Z,16.19
2018-09-18T06:20:07.413Z,16.26
2018-09-18T06:22:40.142Z,16.32
2018-09-18T06:25:08.741Z,16.47
2018-09-18T06:27:37.390Z,16.66
2018-09-18T06:30:06.502Z,16.88
2018-09-18T06:32:35.276Z,17.13
2018-09-18T06:35:03.908Z,17.39
2018-09-18T06:37:32.413Z,17.63
2018-09-18T06:40:01.034Z,17.82
2018-09-18T06:42:29.649Z,17.99
2018-09-18T06:44:58.189Z,18.17
2018-09-18T06:47:26.834Z,18.36
2018-09-18T06:49:55.510Z,18.58
2018-09-18T06:52:24.130Z,18.80
2018-09-18T06:54:52.828Z,19.13
2018-09-18T06:57:21.491Z,19.42
2018-09-18T06:59:50.197Z,19.72
2018-09-18T07:02:18.778Z,20.02
2018-09-18T07:04:47.498Z,20.14
2018-09-18T07:07:16.183Z,20.42
2018-09-18T07:09:44.723Z,20.68
2018-09-18T07:12:13.269Z,21.02
2018-09-18T07:14:41.862Z,21.09
2018-09-18T07:17:10.344Z,21.31
2018-09-18T07:19:39.506Z,21.48
2018-09-18T07:22:08.266Z,21.71
2018-09-18T07:24:36.981Z,21.91
2018-09-18T07:27:05.595Z,22.02
2018-09-18T07:29:34.326Z,22.27
2018-09-18T07:32:03.002Z,22.51
2018-09-18T07:34:31.619Z,22.55
2018-09-18T07:37:00.689Z,22.58
2018-09-18T07:39:29.786Z,22.72
2018-09-18T07:41:58.871Z,22.81
2018-09-18T07:44:27.857Z,23.03
2018-09-18T07:46:56.577Z,23.04
2018-09-18T07:49:25.105Z,23.26
2018-09-18T07:51:53.782Z,23.58
2018-09-18T07:54:22.422Z,23.83
2018-09-18T07:56:51.041Z,23.95
2018-09-18T07:59:19.813Z,24.18
2018-09-18T08:01:48.525Z,24.46
2018-09-18T08:04:17.237Z,24.52
2018-09-18T08:06:45.982Z,24.65
2018-09-18T08:09:14.818Z,24.70
2018-09-18T08:11:43.622Z,24.81
2018-09-18T08:14:12.451Z,24.85
2018-09-18T08:16:40.998Z,24.84
2018-09-18T08:19:09.823Z,24.97
2018-09-18T08:21:38.701Z,24.93
2018-09-18T08:24:07.543Z,25.02
2018-09-18T08:26:36.245Z,25.27
2018-09-18T08:29:04.835Z,25.05
2018-09-18T08:31:33.451Z,25.08
2018-09-18T08:34:02.260Z,25.34
2018-09-18T08:36:31.290Z,25.39
2018-09-18T08:39:00.019Z,25.57
2018-09-18T08:41:28.718Z,25.71
2018-09-18T08:43:57.358Z,25.72
2018-09-18T08:46:26.034Z,25.65
2018-09-18T08:48:55.661Z,25.64
2018-09-18T08:51:24.315Z,25.51
2018-09-18T08:53:53.271Z,25.67
2018-09-18T08:56:21.901Z,25.64
2018-09-18T08:58:50.908Z,25.79
2018-09-18T09:01:19.750Z,25.94
2018-09-18T09:03:48.512Z,25.95
2018-09-18T09:06:17.302Z,25.84
2018-09-18T09:08:45.909Z,25.84
2018-09-18T09:11:14.309Z,26.09
2018-09-18T09:13:42.734Z,25.93
2018-09-18T09:16:11.189Z,26.21
2018-09-18T09:18:40.085Z,26.38
2018-09-18T09:21:08.857Z,26.51
2018-09-18T09:23:37.255Z,26.65
2018-09-18T09:26:05.900Z,26.53
2018-09-18T09:28:34.549Z,26.57
2018-09-18T09:31:03.175Z,26.53
2018-09-18T09:33:31.735Z,26.73
2018-09-18T09:36:00.266Z,26.47
2018-09-18T09:38:28.955Z,26.85
2018-09-18T09:40:57.562Z,26.78
2018-09-18T09:43:26.279Z,27.12
2018-09-18T09:45:55.111Z,27.18
2018-09-18T09:48:23.643Z,27.17
2018-09-18T09:50:52.282Z,27.23
2018-09-18T09:53:20.817Z,27.45
2018-09-18T09:55:49.562Z,27.33
2018-09-18T09:58:18.167Z,27.44
2018-09-18T10:00:51.857Z,27.41
2018-09-18T10:03:20.389Z,27.86
2018-09-18T10:05:49.496Z,27.96
2018-09-18T10:08:18.005Z,28.19
2018-09-18T10:10:46.827Z,28.48
2018-09-18T10:13:15.432Z,28.68
2018-09-18T10:15:44.257Z,28.51
2018-09-18T10:18:12.836Z,28.68
2018-09-18T10:20:41.595Z,28.76
2018-09-18T10:23:10.220Z,28.93
2018-09-18T10:25:38.872Z,29.15
2018-09-18T10:28:07.521Z,29.22
2018-09-18T10:30:36.154Z,29.19
2018-09-18T10:33:04.946Z,29.32
2018-09-18T10:35:33.605Z,29.25
2018-09-18T10:38:02.273Z,29.21
2018-09-18T10:40:30.902Z,29.39
2018-09-18T10:42:59.665Z,29.42
2018-09-18T10:45:28.162Z,29.41
2018-09-18T10:47:56.736Z,29.40
2018-09-18T10:50:25.427Z,29.47
2018-09-18T10:52:54.207Z,29.46
2018-09-18T10:55:22.815Z,29.57
2018-09-18T10:57:51.357Z,29.76
2018-09-18T11:00:32.583Z,29.83
2018-09-18T11:03:01.153Z,30.02
2018-09-18T11:05:29.975Z,30.19
2018-09-18T11:07:58.767Z,30.25
2018-09-18T11:10:27.541Z,30.04
2018-09-18T11:12:56.202Z,29.89
2018-09-18T11:15:24.973Z,30.05
2018-09-18T11:17:53.554Z,30.05
2018-09-18T11:20:22.250Z,29.82
2018-09-18T11:22:50.995Z,30.06
2018-09-18T11:25:19.709Z,30.07
2018-09-18T11:27:48.487Z,30.16
2018-09-18T11:30:17.237Z,30.21
2018-09-18T11:32:46.014Z,30.59
2018-09-18T11:35:14.612Z,30.83
2018-09-18T11:37:43.203Z,30.95
2018-09-18T11:40:11.877Z,31.05
2018-09-18T11:42:40.574Z,31.24
2018-09-18T11:45:09.289Z,31.45
2018-09-18T11:47:38.047Z,31.70
2018-09-18T11:50:06.848Z,31.63
2018-09-18T11:52:35.586Z,31.46
2018-09-18T11:55:04.354Z,31.71
2018-09-18T11:57:32.988Z,31.52
2018-09-18T12:00:01.709Z,31.48
2018-09-18T12:02:30.762Z,31.38
2018-09-18T12:04:59.531Z,31.13
2018-09-18T12:07:28.038Z,31.10
2018-09-18T12:09:56.649Z,31.49
2018-09-18T12:12:25.346Z,31.73
2018-09-18T12:14:54.228Z,31.46
2018-09-18T12:17:22.791Z,31.28
2018-09-18T12:19:51.286Z,31.05
2018-09-18T12:22:19.998Z,30.97
2018-09-18T12:24:48.738Z,31.12
2018-09-18T12:27:17.699Z,31.07
2018-09-18T12:29:46.745Z,30.97
2018-09-18T12:32:15.571Z,30.95
2018-09-18T12:34:44.138Z,31.01
2018-09-18T12:37:12.921Z,31.09
2018-09-18T12:39:41.723Z,31.52
2018-09-18T12:42:10.488Z,31.45
2018-09-18T12:44:39.075Z,31.46
2018-09-18T12:47:27.349Z,31.65
2018-09-18T12:49:56.036Z,31.97
2018-09-18T12:52:25.016Z,32.19
2018-09-18T12:54:53.696Z,32.18
2018-09-18T12:57:22.503Z,31.97
2018-09-18T12:59:50.958Z,31.86
2018-09-18T13:02:19.717Z,32.16
2018-09-18T13:04:49.314Z,32.60
2018-09-18T13:07:17.929Z,32.87
2018-09-18T13:09:46.483Z,33.09
2018-09-18T13:12:15.077Z,33.08
2018-09-18T13:14:43.638Z,32.60
2018-09-18T13:17:12.200Z,32.16
2018-09-18T13:19:40.734Z,31.92
2018-09-18T13:22:09.351Z,31.71
2018-09-18T13:24:37.985Z,31.61
2018-09-18T13:27:06.726Z,31.88
2018-09-18T13:29:35.254Z,32.41
2018-09-18T13:32:03.835Z,33.04
2018-09-18T13:34:32.523Z,32.28
2018-09-18T13:37:01.084Z,32.09
2018-09-18T13:39:29.571Z,31.81
2018-09-18T13:41:58.183Z,31.75
2018-09-18T13:44:26.850Z,31.99
2018-09-18T13:46:55.441Z,31.70
2018-09-18T13:49:24.123Z,31.60
2018-09-18T13:51:52.867Z,31.64
2018-09-18T13:54:21.491Z,31.53
2018-09-18T13:56:50.349Z,31.57
2018-09-18T13:59:19.015Z,31.66
2018-09-18T14:01:47.748Z,31.73
2018-09-18T14:04:16.371Z,31.82
2018-09-18T14:06:44.955Z,32.40
2018-09-18T14:09:13.836Z,32.52
2018-09-18T14:11:42.672Z,32.88
2018-09-18T14:14:11.419Z,32.87
2018-09-18T14:16:39.948Z,32.45
2018-09-18T14:19:08.510Z,32.23
2018-09-18T14:21:37.210Z,31.63
2018-09-18T14:24:05.730Z,31.30
2018-09-18T14:26:34.559Z,31.16
2018-09-18T14:29:02.872Z,31.17
2018-09-18T14:31:32.087Z,31.62
2018-09-18T14:34:00.893Z,32.36
2018-09-18T14:36:29.731Z,31.83
2018-09-18T14:38:58.418Z,31.72
2018-09-18T14:41:27.054Z,31.75
2018-09-18T14:43:55.805Z,31.46
2018-09-18T14:46:24.262Z,31.00
2018-09-18T14:48:52.983Z,30.62
2018-09-18T14:51:21.694Z,30.24
2018-09-18T14:53:50.234Z,29.68
2018-09-18T14:56:19.198Z,29.40
2018-09-18T14:58:48.026Z,29.53
2018-09-18T15:01:16.675Z,29.53
2018-09-18T15:03:45.533Z,29.67
2018-09-18T15:06:14.048Z,29.77
2018-09-18T15:08:42.559Z,29.90
2018-09-18T15:11:11.444Z,30.00
2018-09-18T15:13:40.005Z,29.95
2018-09-18T15:16:08.523Z,29.84
2018-09-18T15:18:37.058Z,30.27
2018-09-18T15:21:05.610Z,31.02
2018-09-18T15:23:34.197Z,31.14
2018-09-18T15:26:02.668Z,30.73
2018-09-18T15:28:31.183Z,30.34
2018-09-18T15:30:59.736Z,30.59
2018-09-18T15:33:28.303Z,31.64
2018-09-18T15:35:56.873Z,30.94
2018-09-18T15:38:25.441Z,30.22
2018-09-18T15:40:53.861Z,29.91
2018-09-18T15:43:22.365Z,30.52
2018-09-18T15:45:50.848Z,31.37
2018-09-18T15:48:19.452Z,31.70
2018-09-18T15:50:48.219Z,31.33
2018-09-18T15:53:17.016Z,31.32
2018-09-18T15:55:45.801Z,30.71
2018-09-18T15:58:15.353Z,30.28
2018-09-18T16:00:44.123Z,30.19
2018-09-18T16:03:12.945Z,30.25
2018-09-18T16:05:41.866Z,29.68
2018-09-18T16:08:11.806Z,29.13
2018-09-18T16:10:40.752Z,28.79
2018-09-18T16:13:09.344Z,28.52
2018-09-18T16:15:37.956Z,28.28
2018-09-18T16:18:06.732Z,28.17
2018-09-18T16:20:37.590Z,28.41
2018-09-18T16:23:07.029Z,28.40
2018-09-18T16:25:36.175Z,28.39
2018-09-18T16:28:06.815Z,28.42
2018-09-18T16:30:35.777Z,28.34
2018-09-18T16:33:05.051Z,28.67
2018-09-18T16:35:33.684Z,28.57
2018-09-18T16:38:02.641Z,28.37
2018-09-18T16:40:31.451Z,28.30
2018-09-18T16:43:00.256Z,28.28
2018-09-18T16:45:28.986Z,28.35
2018-09-18T16:47:57.602Z,28.39
2018-09-18T16:50:26.352Z,28.38
2018-09-18T16:52:55.157Z,28.34
2018-09-18T16:55:24.210Z,28.29
2018-09-18T16:57:52.971Z,28.21
2018-09-18T17:00:22.638Z,28.09
2018-09-18T17:02:51.333Z,27.99
2018-09-18T17:05:20.056Z,27.93
2018-09-18T17:07:52.484Z,27.86
2018-09-18T17:10:21.163Z,27.74
2018-09-18T17:12:50.498Z,27.76
2018-09-18T17:15:19.386Z,27.70
2018-09-18T17:17:48.001Z,27.61
2018-09-18T17:20:17.489Z,27.53
2018-09-18T17:22:45.984Z,27.44
2018-09-18T17:25:16.914Z,27.35
2018-09-18T17:27:46.733Z,27.25
2018-09-18T17:30:15.956Z,27.19
2018-09-18T17:32:45.049Z,27.10
2018-09-18T17:35:14.030Z,27.08
2018-09-18T17:37:42.866Z,26.98
2018-09-18T17:40:11.848Z,26.91
2018-09-18T17:42:41.235Z,26.84
2018-09-18T17:45:09.985Z,26.81
2018-09-18T17:47:38.606Z,26.77
2018-09-18T17:50:07.201Z,26.68
2018-09-18T17:52:35.730Z,26.58
2018-09-18T17:55:04.250Z,26.49
2018-09-18T17:57:32.894Z,26.39
2018-09-18T18:00:01.493Z,26.30
2018-09-18T18:02:30.340Z,26.21
2018-09-18T18:04:59.019Z,26.12
2018-09-18T18:07:30.121Z,26.03
2018-09-18T18:10:03.051Z,25.95
2018-09-18T18:12:34.090Z,25.91
2018-09-18T18:15:03.007Z,25.83
2018-09-18T18:17:31.538Z,25.79
2018-09-18T18:20:00.043Z,25.75
2018-09-18T18:22:28.525Z,25.69
2018-09-18T18:24:57.138Z,25.64
2018-09-18T18:27:25.757Z,25.63
2018-09-18T18:29:54.305Z,25.60
2018-09-18T18:32:22.780Z,25.59
2018-09-18T18:34:51.468Z,25.53
2018-09-18T18:37:19.934Z,25.47
2018-09-18T18:39:49.590Z,25.41
2018-09-18T18:42:18.029Z,25.36
2018-09-18T18:44:46.664Z,25.34
2018-09-18T18:47:15.517Z,25.30
2018-09-18T18:49:44.388Z,25.24
2018-09-18T18:52:15.121Z,25.19
2018-09-18T18:54:43.681Z,25.17
2018-09-18T18:57:12.400Z,25.15
2018-09-18T18:59:41.045Z,25.11
2018-09-18T19:02:09.772Z,25.07
2018-09-18T19:04:38.257Z,24.99
2018-09-18T19:07:07.166Z,24.91
2018-09-18T19:09:36.424Z,24.85
2018-09-18T19:12:05.305Z,24.82
2018-09-18T19:14:33.856Z,24.75
2018-09-18T19:17:02.315Z,24.68
2018-09-18T19:19:31.046Z,24.62
2018-09-18T19:21:59.635Z,24.54
2018-09-18T19:24:28.206Z,24.48
2018-09-18T19:26:56.875Z,24.36
2018-09-18T19:29:25.434Z,24.32
2018-09-18T19:31:54.940Z,24.24
2018-09-18T19:34:23.490Z,24.19
2018-09-18T19:36:52.269Z,24.23
2018-09-18T19:39:20.848Z,24.24
2018-09-18T19:41:49.418Z,24.25
2018-09-18T19:44:17.960Z,24.24
2018-09-18T19:46:46.670Z,24.17
2018-09-18T19:49:15.121Z,24.10
2018-09-18T19:51:43.828Z,24.10
2018-09-18T19:54:12.285Z,24.14
2018-09-18T19:56:40.952Z,24.13
2018-09-18T19:59:11.402Z,24.14
2018-09-18T20:01:40.375Z,24.04
2018-09-18T20:04:08.974Z,23.96
2018-09-18T20:06:37.637Z,23.91
2018-09-18T20:09:08.633Z,23.82
2018-09-18T20:11:37.112Z,23.73
2018-09-18T20:14:05.585Z,23.61
2018-09-18T20:16:34.088Z,23.52
2018-09-18T20:19:02.533Z,23.48
2018-09-18T20:21:31.421Z,23.39
2018-09-18T20:24:00.030Z,23.31
2018-09-18T20:26:28.821Z,23.13
2018-09-18T20:28:57.613Z,22.97
2018-09-18T20:31:26.230Z,22.81
2018-09-18T20:33:54.825Z,22.70
2018-09-18T20:36:23.452Z,22.62
2018-09-18T20:38:52.065Z,22.33
2018-09-18T20:41:20.570Z,22.07
2018-09-18T20:43:49.214Z,21.85
2018-09-18T20:46:17.769Z,21.70
2018-09-18T20:48:46.536Z,21.54
2018-09-18T20:51:15.098Z,21.49
2018-09-18T20:53:43.645Z,21.41
2018-09-18T20:56:12.193Z,21.36
2018-09-18T20:58:40.629Z,21.33
2018-09-18T21:01:09.139Z,21.30
2018-09-18T21:03:38.722Z,21.19
2018-09-18T21:06:07.241Z,21.16
2018-09-18T21:08:35.985Z,21.14
2018-09-18T21:11:04.646Z,21.03
2018-09-18T21:13:33.158Z,20.93
2018-09-18T21:16:01.681Z,20.86
2018-09-18T21:18:30.520Z,20.83
2018-09-18T21:20:59.764Z,20.77
2018-09-18T21:23:28.331Z,20.75
2018-09-18T21:26:05.740Z,20.65
2018-09-18T21:28:34.438Z,20.60
2018-09-18T21:31:03.063Z,20.52
2018-09-18T21:33:31.743Z,20.50
2018-09-18T21:36:00.837Z,20.43
2018-09-18T21:38:29.710Z,20.35
2018-09-18T21:40:58.318Z,20.36
2018-09-18T21:43:27.448Z,20.27
2018-09-18T21:45:56.114Z,20.22
2018-09-18T21:48:24.671Z,20.24
2018-09-18T21:50:53.116Z,20.15
2018-09-18T21:53:21.639Z,20.09
2018-09-18T21:55:50.175Z,20.00
2018-09-18T21:58:18.681Z,19.94
2018-09-18T22:00:47.168Z,19.90
2018-09-18T22:03:16.386Z,19.75
2018-09-18T22:05:44.998Z,19.78
2018-09-18T22:08:13.740Z,19.56
2018-09-18T22:10:42.327Z,19.30
2018-09-18T22:13:11.257Z,19.25
2018-09-18T22:15:39.904Z,19.24
2018-09-18T22:18:08.482Z,19.20
2018-09-18T22:20:37.059Z,19.24
2018-09-18T22:23:05.641Z,19.41
2018-09-18T22:25:34.128Z,19.52
2018-09-18T22:28:02.754Z,19.52
2018-09-18T22:30:31.341Z,19.58
2018-09-18T22:32:59.868Z,19.69
2018-09-18T22:35:28.346Z,19.69
2018-09-18T22:37:56.891Z,19.58
2018-09-18T22:40:25.637Z,19.60
2018-09-18T22:42:54.271Z,19.58
2018-09-18T22:45:22.828Z,19.52
2018-09-18T22:47:51.441Z,19.50
2018-09-18T22:50:20.081Z,19.48
2018-09-18T22:52:48.637Z,19.45
2018-09-18T22:55:17.153Z,19.39
2018-09-18T22:57:45.742Z,19.25
2018-09-18T23:00:14.294Z,19.26
2018-09-18T23:02:42.981Z,19.29
2018-09-18T23:05:11.598Z,19.36
2018-09-18T23:10:34.061Z,19.13
2018-09-18T23:13:02.612Z,19.02
2018-09-18T23:15:31.119Z,18.85
2018-09-18T23:17:59.681Z,18.74
2018-09-18T23:20:28.187Z,18.64
2018-09-18T23:22:56.748Z,18.67
2018-09-18T23:25:25.263Z,18.54
2018-09-18T23:27:53.766Z,18.84
2018-09-18T23:30:22.550Z,18.92
2018-09-18T23:32:51.174Z,18.78
2018-09-18T23:35:19.726Z,18.94
2018-09-18T23:37:48.412Z,18.98
2018-09-18T23:40:16.977Z,18.96
2018-09-18T23:42:45.572Z,18.95
2018-09-18T23:45:14.198Z,18.95
2018-09-18T23:47:42.796Z,19.02
2018-09-18T23:50:11.354Z,18.99
2018-09-18T23:52:39.965Z,18.94
2018-09-18T23:55:08.592Z,18.92
2018-09-18T23:57:37.152Z,18.99
